createdAt,value
2023-05-19T00:03:52.698Z,9.95
2023-05-19T00:07:58.842Z,9.94
2023-05-19T00:12:00.772Z,9.87
2023-05-19T00:16:02.746Z,9.85
2023-05-19T00:20:07.619Z,9.81
2023-05-19T00:24:09.305Z,9.80
2023-05-19T00:28:11.102Z,9.78
2023-05-19T00:32:13.135Z,9.72
2023-05-19T00:36:15.034Z,9.64
2023-05-19T00:40:16.960Z,9.58
2023-05-19T00:44:18.720Z,9.51
2023-05-19T00:48:21.092Z,9.41
2023-05-19T00:52:23.087Z,9.38
2023-05-19T00:56:24.917Z,9.35
2023-05-19T01:00:26.660Z,9.30
2023-05-19T01:04:29.872Z,9.28
2023-05-19T01:08:35.014Z,9.25
2023-05-19T01:12:37.056Z,9.21
2023-05-19T01:16:47.084Z,9.17
2023-05-19T01:20:59.360Z,9.10
2023-05-19T01:25:10.592Z,9.04
2023-05-19T01:29:18.136Z,9.01
2023-05-19T01:33:21.684Z,8.95
2023-05-19T01:37:24.472Z,8.90
2023-05-19T01:41:26.591Z,8.87
2023-05-19T01:45:30.299Z,8.83
2023-05-19T01:49:32.128Z,8.80
2023-05-19T01:53:33.973Z,8.76
2023-05-19T01:57:59.985Z,8.72
2023-05-19T02:02:09.366Z,8.69
2023-05-19T02:06:20.173Z,8.66
2023-05-19T02:10:31.226Z,8.63
2023-05-19T02:14:39.413Z,8.62
2023-05-19T02:18:45.721Z,8.57
2023-05-19T02:22:47.854Z,8.50
2023-05-19T02:26:50.717Z,8.50
2023-05-19T02:30:53.563Z,8.46
2023-05-19T02:34:56.841Z,8.43
2023-05-19T02:38:58.540Z,8.38
2023-05-19T02:43:00.238Z,8.32
2023-05-19T02:47:02.190Z,8.28
2023-05-19T02:51:04.157Z,8.26
2023-05-19T02:55:06.304Z,8.21
2023-05-19T02:59:08.488Z,8.17
2023-05-19T03:03:10.574Z,8.15
2023-05-19T03:07:14.568Z,8.11
2023-05-19T03:11:17.122Z,8.10
2023-05-19T03:15:19.494Z,8.08
2023-05-19T03:19:21.649Z,8.06
2023-05-19T03:23:23.675Z,8.02
2023-05-19T03:27:25.401Z,8.00
2023-05-19T03:31:27.109Z,7.97
2023-05-19T03:35:29.272Z,7.98
2023-05-19T03:39:31.313Z,7.98
2023-05-19T03:43:33.126Z,8.00
2023-05-19T03:47:38.150Z,8.01
2023-05-19T03:51:58.609Z,7.98
2023-05-19T03:56:23.787Z,8.00
2023-05-19T04:00:25.533Z,8.04
2023-05-19T04:04:28.580Z,8.09
2023-05-19T04:08:30.302Z,8.13
2023-05-19T04:12:33.220Z,8.15
2023-05-19T04:16:35.431Z,8.17
2023-05-19T04:20:37.789Z,8.20
2023-05-19T04:24:39.455Z,8.25
2023-05-19T04:28:42.604Z,8.35
2023-05-19T04:32:44.388Z,8.44
2023-05-19T04:36:46.340Z,8.47
2023-05-19T04:40:50.508Z,8.53
2023-05-19T04:44:52.733Z,8.59
2023-05-19T04:48:57.330Z,8.64
2023-05-19T04:52:59.514Z,8.64
2023-05-19T04:57:01.897Z,8.71
2023-05-19T05:01:06.020Z,8.76
2023-05-19T05:05:08.384Z,8.79
2023-05-19T05:09:10.663Z,8.81
2023-05-19T05:13:12.735Z,8.83
2023-05-19T05:17:14.922Z,8.92
2023-05-19T05:21:17.701Z,8.98
2023-05-19T05:25:20.767Z,9.08
2023-05-19T05:29:23.585Z,9.18
2023-05-19T05:33:25.457Z,9.27
2023-05-19T05:37:27.575Z,9.37
2023-05-19T05:41:35.526Z,9.48
2023-05-19T05:45:56.612Z,9.56
2023-05-19T05:49:59.120Z,9.64
2023-05-19T05:54:02.873Z,9.72
2023-05-19T05:58:11.477Z,9.79
2023-05-19T06:02:13.549Z,9.85
2023-05-19T06:06:16.094Z,9.98
2023-05-19T06:10:17.941Z,10.14
2023-05-19T06:14:20.567Z,10.31
2023-05-19T06:18:42.343Z,10.54
2023-05-19T06:22:44.913Z,10.73
2023-05-19T06:26:48.067Z,11.03
2023-05-19T06:30:51.712Z,11.28
2023-05-19T06:35:17.952Z,11.56
2023-05-19T06:39:19.911Z,11.70
2023-05-19T06:43:21.888Z,11.76
2023-05-19T06:47:37.345Z,11.88
2023-05-19T06:51:40.407Z,12.00
2023-05-19T06:55:57.488Z,12.20
2023-05-19T07:00:02.391Z,12.39
2023-05-19T07:04:06.380Z,12.68
2023-05-19T07:08:09.514Z,12.97
2023-05-19T07:12:12.520Z,13.19
2023-05-19T07:16:14.431Z,13.39
2023-05-19T07:20:17.140Z,13.73
2023-05-19T07:24:21.566Z,14.04
2023-05-19T07:28:23.591Z,14.21
2023-05-19T07:32:26.076Z,14.45
2023-05-19T07:36:27.955Z,14.73
2023-05-19T07:40:29.727Z,15.00
2023-05-19T07:44:38.370Z,15.21
2023-05-19T07:48:40.243Z,15.32
2023-05-19T07:52:42.051Z,15.51
2023-05-19T07:56:43.848Z,15.64
2023-05-19T08:00:46.946Z,15.80
2023-05-19T08:04:50.583Z,15.96
2023-05-19T08:08:54.596Z,15.92
2023-05-19T08:12:56.947Z,15.86
2023-05-19T08:16:58.721Z,16.14
2023-05-19T08:21:13.649Z,16.32
2023-05-19T08:25:15.974Z,16.49
2023-05-19T08:29:17.747Z,16.73
2023-05-19T08:33:21.638Z,16.91
2023-05-19T08:37:23.427Z,17.09
2023-05-19T08:41:30.588Z,17.26
2023-05-19T08:45:34.970Z,17.32
2023-05-19T08:49:43.858Z,17.30
2023-05-19T08:53:51.526Z,17.38
2023-05-19T08:57:54.487Z,17.32
2023-05-19T09:01:56.772Z,17.51
2023-05-19T09:05:58.913Z,17.89
2023-05-19T09:10:02.182Z,18.60
2023-05-19T09:14:06.998Z,18.70
2023-05-19T09:18:11.223Z,18.49
2023-05-19T09:22:15.706Z,18.79
2023-05-19T09:26:17.465Z,19.12
2023-05-19T09:30:30.781Z,19.02
2023-05-19T09:34:32.900Z,18.99
2023-05-19T09:38:38.989Z,19.11
2023-05-19T09:42:44.447Z,19.17
2023-05-19T09:46:50.621Z,19.33
2023-05-19T09:50:54.442Z,19.66
2023-05-19T09:54:57.214Z,19.96
2023-05-19T09:58:59.279Z,19.98
2023-05-19T10:03:04.261Z,20.35
2023-05-19T10:07:06.384Z,20.47
2023-05-19T10:11:10.024Z,20.48
2023-05-19T10:15:13.984Z,20.62
2023-05-19T10:19:16.666Z,20.24
2023-05-19T10:23:18.913Z,19.57
2023-05-19T10:27:21.163Z,19.00
2023-05-19T10:31:24.463Z,19.15
2023-05-19T10:35:57.166Z,19.46
2023-05-19T10:39:59.111Z,19.65
2023-05-19T10:44:06.514Z,20.03
2023-05-19T10:48:16.482Z,20.30
2023-05-19T10:52:26.134Z,20.59
2023-05-19T10:56:38.590Z,21.20
2023-05-19T11:00:42.521Z,21.53
2023-05-19T11:04:51.956Z,21.78
2023-05-19T11:09:02.624Z,21.76
2023-05-19T11:13:06.555Z,21.48
2023-05-19T11:17:14.768Z,21.34
2023-05-19T11:21:19.928Z,21.43
2023-05-19T11:25:47.253Z,21.89
2023-05-19T11:29:49.793Z,22.18
2023-05-19T11:33:51.639Z,22.33
2023-05-19T11:37:54.746Z,22.12
2023-05-19T11:41:56.507Z,22.25
2023-05-19T11:45:58.588Z,21.95
2023-05-19T11:50:00.464Z,22.31
2023-05-19T11:54:03.529Z,23.19
2023-05-19T11:58:06.323Z,23.66
2023-05-19T12:02:28.005Z,24.06
2023-05-19T12:06:30.204Z,24.64
2023-05-19T12:10:34.098Z,25.13
2023-05-19T12:14:36.204Z,25.64
2023-05-19T12:18:38.633Z,25.97
2023-05-19T12:22:44.186Z,26.16
2023-05-19T12:26:47.667Z,26.57
2023-05-19T12:30:52.448Z,26.69
2023-05-19T12:34:56.546Z,26.36
2023-05-19T12:38:58.498Z,26.20
2023-05-19T12:43:00.304Z,26.35
2023-05-19T12:47:06.051Z,26.18
2023-05-19T12:51:07.947Z,26.17
2023-05-19T12:55:11.905Z,25.12
2023-05-19T12:59:37.311Z,25.86
2023-05-19T13:03:44.214Z,26.32
2023-05-19T13:07:55.152Z,26.56
2023-05-19T13:11:59.558Z,26.86
2023-05-19T13:16:01.249Z,27.28
2023-05-19T13:20:05.542Z,26.84
2023-05-19T13:24:08.044Z,26.60
2023-05-19T13:28:10.511Z,26.51
2023-05-19T13:32:12.193Z,27.08
2023-05-19T13:36:13.869Z,26.66
2023-05-19T13:40:17.226Z,25.96
2023-05-19T13:44:18.922Z,25.56
2023-05-19T13:48:20.761Z,25.23
2023-05-19T13:52:22.728Z,24.88
2023-05-19T13:56:24.653Z,24.93
2023-05-19T14:00:26.426Z,24.37
2023-05-19T14:04:29.336Z,24.48
2023-05-19T14:08:31.586Z,24.96
2023-05-19T14:12:41.496Z,24.62
2023-05-19T14:16:54.543Z,24.58
2023-05-19T14:20:56.564Z,24.44
2023-05-19T14:24:58.432Z,24.04
2023-05-19T14:29:00.208Z,23.49
2023-05-19T14:33:02.426Z,24.88
2023-05-19T14:37:04.316Z,26.16
2023-05-19T14:41:07.315Z,25.94
2023-05-19T14:45:09.818Z,25.24
2023-05-19T14:49:11.891Z,24.86
2023-05-19T14:53:13.923Z,24.35
2023-05-19T14:57:15.672Z,24.29
2023-05-19T15:01:17.814Z,24.23
2023-05-19T15:05:19.700Z,24.11
2023-05-19T15:09:21.373Z,23.62
2023-05-19T15:13:23.151Z,23.16
2023-05-19T15:17:24.924Z,22.86
2023-05-19T15:21:26.753Z,22.88
2023-05-19T15:25:28.470Z,22.90
2023-05-19T15:29:30.161Z,22.66
2023-05-19T15:33:31.937Z,22.48
2023-05-19T15:37:33.702Z,22.16
2023-05-19T15:41:35.859Z,22.20
2023-05-19T15:45:37.661Z,22.20
2023-05-19T15:49:39.408Z,22.32
2023-05-19T15:53:41.924Z,22.38
2023-05-19T15:57:43.653Z,22.43
2023-05-19T16:01:45.589Z,22.15
2023-05-19T16:05:47.416Z,21.99
2023-05-19T16:09:50.161Z,22.09
2023-05-19T16:13:51.902Z,22.23
2023-05-19T16:17:55.172Z,22.03
2023-05-19T16:21:57.571Z,22.01
2023-05-19T16:25:59.276Z,21.78
2023-05-19T16:30:02.572Z,21.59
2023-05-19T16:34:04.269Z,21.31
2023-05-19T16:38:07.943Z,21.13
2023-05-19T16:42:09.726Z,20.87
2023-05-19T16:46:12.409Z,20.70
2023-05-19T16:50:14.208Z,20.48
2023-05-19T16:54:15.901Z,20.27
2023-05-19T16:58:17.588Z,20.14
2023-05-19T17:02:19.636Z,20.07
2023-05-19T17:06:21.651Z,20.03
2023-05-19T17:10:23.350Z,20.01
2023-05-19T17:14:25.921Z,19.90
2023-05-19T17:18:27.630Z,19.74
2023-05-19T17:22:30.377Z,19.59
2023-05-19T17:26:32.697Z,19.53
2023-05-19T17:30:34.951Z,19.50
2023-05-19T17:34:36.969Z,19.41
2023-05-19T17:38:40.524Z,19.30
2023-05-19T17:42:42.325Z,19.27
2023-05-19T17:46:44.191Z,19.24
2023-05-19T17:50:49.366Z,19.09
2023-05-19T17:54:51.452Z,18.98
2023-05-19T17:58:53.590Z,18.91
2023-05-19T18:02:57.173Z,18.75
2023-05-19T18:07:01.576Z,18.62
2023-05-19T18:11:04.505Z,18.51
2023-05-19T18:15:06.851Z,18.46
2023-05-19T18:19:08.776Z,18.40
2023-05-19T18:23:10.835Z,18.34
2023-05-19T18:27:12.931Z,18.20
2023-05-19T18:31:20.120Z,18.14
2023-05-19T18:35:22.610Z,18.11
2023-05-19T18:39:24.573Z,18.07
2023-05-19T18:43:27.283Z,17.94
2023-05-19T18:47:29.081Z,17.87
2023-05-19T18:51:33.530Z,17.75
2023-05-19T18:55:37.076Z,17.62
2023-05-19T18:59:40.386Z,17.49
2023-05-19T19:03:43.844Z,17.39
2023-05-19T19:07:45.544Z,17.21
2023-05-19T19:11:47.314Z,17.06
2023-05-19T19:15:49.917Z,16.90
2023-05-19T19:19:51.849Z,16.83
2023-05-19T19:23:54.951Z,16.71
2023-05-19T19:27:56.758Z,16.57
2023-05-19T19:31:58.534Z,16.41
2023-05-19T19:36:00.245Z,16.23
2023-05-19T19:40:03.418Z,16.17
2023-05-19T19:44:05.302Z,16.09
2023-05-19T19:48:07.671Z,15.95
2023-05-19T19:52:09.514Z,15.84
2023-05-19T19:56:11.941Z,15.67
2023-05-19T20:00:14.265Z,15.55
2023-05-19T20:04:16.359Z,15.42
2023-05-19T20:08:20.010Z,15.29
2023-05-19T20:12:22.577Z,15.21
2023-05-19T20:16:24.485Z,15.11
2023-05-19T20:20:26.323Z,14.96
2023-05-19T20:24:28.750Z,14.84
2023-05-19T20:28:30.657Z,14.72
2023-05-19T20:32:32.839Z,14.65
2023-05-19T20:36:34.982Z,14.54
2023-05-19T20:40:37.852Z,14.44
2023-05-19T20:44:39.536Z,14.37
2023-05-19T20:48:42.013Z,14.32
2023-05-19T20:52:43.745Z,14.22
2023-05-19T20:56:45.670Z,14.12
2023-05-19T21:00:48.869Z,14.02
2023-05-19T21:04:51.022Z,13.96
2023-05-19T21:08:52.809Z,13.90
2023-05-19T21:12:54.626Z,13.84
2023-05-19T21:16:56.832Z,13.80
2023-05-19T21:21:02.249Z,13.75
2023-05-19T21:25:04.387Z,13.62
2023-05-19T21:29:06.118Z,13.53
2023-05-19T21:33:08.064Z,13.45
2023-05-19T21:37:09.929Z,13.41
2023-05-19T21:41:11.756Z,13.34
2023-05-19T21:45:13.537Z,13.27
2023-05-19T21:49:16.139Z,13.20
2023-05-19T21:53:17.830Z,13.15
2023-05-19T21:57:19.514Z,13.09
2023-05-19T22:01:22.398Z,13.00
2023-05-19T22:05:24.044Z,12.88
2023-05-19T22:09:25.883Z,12.77
2023-05-19T22:13:27.698Z,12.69
2023-05-19T22:17:30.109Z,12.64
2023-05-19T22:21:32.221Z,12.57
2023-05-19T22:25:33.924Z,12.49
2023-05-19T22:29:38.758Z,12.45
2023-05-19T22:33:40.851Z,12.42
2023-05-19T22:37:42.653Z,12.38
2023-05-19T22:41:45.552Z,12.32
2023-05-19T22:45:47.223Z,12.23
2023-05-19T22:49:50.531Z,12.20
2023-05-19T22:53:52.198Z,12.14
2023-05-19T22:57:53.914Z,12.11
2023-05-19T23:01:55.704Z,12.07
2023-05-19T23:05:57.380Z,12.09
2023-05-19T23:09:59.099Z,12.10
2023-05-19T23:14:00.943Z,12.09
2023-05-19T23:18:07.401Z,12.07
2023-05-19T23:22:11.094Z,12.05
2023-05-19T23:26:16.033Z,12.00
2023-05-19T23:30:17.950Z,11.98
2023-05-19T23:34:19.748Z,11.92
2023-05-19T23:38:21.496Z,11.89
2023-05-19T23:42:23.174Z,11.84
2023-05-19T23:46:24.924Z,11.75
2023-05-19T23:50:26.751Z,11.73
2023-05-19T23:54:30.426Z,11.69
2023-05-19T23:58:32.470Z,11.64
